Time;durP1;ratioP1;P1;durP2;ratioP2;P2;SDS_P1;SDS_P2;PMS_P1;PMS_P2;Temp;Humidity;BMP_temperature;BMP_pressure;BME280_temperature;BME280_humidity;BME280_pressure;Samples;Min_cycle;Max_cycle;Signal;HPM_P1;HPM_P2
2023/03/13 02:25:25;;;;;;;0.15;0.15;;;;;;;;;;4797199;29;20432;-77
2023/03/13 02:28:13;;;;;;;;;;;;;;;;;;;;;
2023/03/13 03:38:31;;;;;;;0.10;0.10;;;;;;;;;;4830518;29;20678;-76
2023/03/13 04:09:39;;;;;;;0.20;0.20;;;;;;;;;;4820233;29;20187;-77
2023/03/13 04:12:42;;;;;;;0.10;0.10;;;;;;;;;;4836791;29;20140;-77
2023/03/13 06:09:04;;;;;;;0.10;0.10;;;;;;;;;;4805728;29;20043;-78
2023/03/13 06:11:38;;;;;;;0.20;0.20;;;;;;;;;;4811731;29;20070;-77
2023/03/13 06:14:17;;;;;;;0.20;0.20;;;;;;;;;;4814032;29;20046;-77
2023/03/13 07:29:11;;;;;;;0.20;0.20;;;;;;;;;;5391021;24;20045;-77
2023/03/13 07:31:38;;;;;;;0.15;0.15;;;;;;;;;;4866297;29;20116;-79
2023/03/13 07:34:04;;;;;;;0.10;0.10;;;;;;;;;;4851536;29;20450;-77
2023/03/13 07:36:30;;;;;;;0.15;0.15;;;;;;;;;;4844869;29;20557;-79
2023/03/13 07:38:56;;;;;;;0.10;0.10;;;;;;;;;;4853384;29;20038;-75
2023/03/13 07:41:22;;;;;;;0.10;0.10;;;;;;;;;;4863185;23;20558;-75
2023/03/13 07:43:49;;;;;;;0.10;0.10;;;;;;;;;;4831399;29;20057;-74
2023/03/13 07:46:18;;;;;;;0.10;0.10;;;;;;;;;;4856676;29;20052;-78
2023/03/13 07:48:45;;;;;;;0.10;0.10;;;;;;;;;;4860058;29;20089;-75
2023/03/13 07:51:13;;;;;;;0.10;0.10;;;;;;;;;;4859600;29;20053;-77
2023/03/13 07:53:42;;;;;;;0.10;0.10;;;;;;;;;;4857819;29;20054;-77
2023/03/13 07:56:12;;;;;;;0.15;0.15;;;;;;;;;;4862111;29;20447;-77
2023/03/13 07:58:39;;;;;;;0.10;0.10;;;;;;;;;;4829657;29;20057;-78
2023/03/13 08:01:31;;;;;;;0.10;0.10;;;;;;;;;;4844277;29;21455;-78
2023/03/13 08:04:00;;;;;;;0.20;0.20;;;;;;;;;;4887060;23;20657;-78
2023/03/13 08:06:39;;;;;;;0.10;0.10;;;;;;;;;;4857661;29;20094;-78
2023/03/13 08:09:35;;;;;;;0.10;0.10;;;;;;;;;;4844998;29;20062;-78
2023/03/13 08:12:01;;;;;;;0.10;0.10;;;;;;;;;;4818259;29;20050;-78
2023/03/13 08:14:27;;;;;;;0.10;0.10;;;;;;;;;;4822016;29;20089;-79
2023/03/13 08:16:53;;;;;;;0.10;0.10;;;;;;;;;;4831233;29;20056;-79
2023/03/13 08:19:19;;;;;;;0.10;0.10;;;;;;;;;;4861195;29;20049;-78
2023/03/13 08:21:46;;;;;;;0.10;0.10;;;;;;;;;;4826431;29;20091;-79
2023/03/13 08:24:12;;;;;;;0.10;0.10;;;;;;;;;;4830582;29;20466;-79
2023/03/13 08:26:44;;;;;;;0.28;0.20;;;;;;;;;;4846006;29;20102;-78
2023/03/13 08:29:27;;;;;;;0.20;0.20;;;;;;;;;;4860797;29;20041;-79
2023/03/13 08:31:54;;;;;;;0.20;0.20;;;;;;;;;;4849084;29;20042;-79
2023/03/13 08:34:20;;;;;;;0.10;0.10;;;;;;;;;;4846045;29;20045;-79
2023/03/13 08:36:46;;;;;;;0.10;0.10;;;;;;;;;;4844022;29;20120;-79
2023/03/13 08:39:14;;;;;;;0.10;0.10;;;;;;;;;;4833380;29;20102;-79
2023/03/13 08:41:55;;;;;;;0.10;0.10;;;;;;;;;;4824163;29;20118;-78
2023/03/13 08:44:21;;;;;;;0.10;0.10;;;;;;;;;;4825440;29;20304;-78
2023/03/13 08:46:59;;;;;;;0.10;0.10;;;;;;;;;;4839393;29;20118;-78
2023/03/13 08:49:37;;;;;;;0.20;0.20;;;;;;;;;;4817090;29;20510;-78
2023/03/13 08:52:12;;;;;;;0.10;0.10;;;;;;;;;;4827131;29;20069;-79
2023/03/13 08:54:38;;;;;;;0.10;0.10;;;;;;;;;;4822227;29;20054;-80
2023/03/13 08:57:04;;;;;;;0.10;0.10;;;;;;;;;;4821177;29;20383;-78
2023/03/13 08:59:30;;;;;;;0.20;0.20;;;;;;;;;;4837852;29;20056;-78
2023/03/13 09:01:59;;;;;;;0.10;0.10;;;;;;;;;;4829157;29;20060;-77
2023/03/13 09:04:25;;;;;;;0.10;0.10;;;;;;;;;;4823936;29;20062;-77
2023/03/13 09:06:54;;;;;;;0.10;0.10;;;;;;;;;;4817816;29;20051;-78
2023/03/13 09:09:23;;;;;;;0.10;0.10;;;;;;;;;;4821766;29;20046;-78
2023/03/13 09:11:49;;;;;;;0.10;0.10;;;;;;;;;;4853432;23;20518;-80
2023/03/13 09:14:53;;;;;;;0.10;0.10;;;;;;;;;;4782764;29;20066;-76
2023/03/13 09:17:27;;;;;;;0.10;0.10;;;;;;;;;;4791005;29;20049;-78
2023/03/13 09:19:56;;;;;;;0.10;0.10;;;;;;;;;;4793109;29;20051;-77
2023/03/13 09:22:44;;;;;;;0.10;0.10;;;;;;;;;;4802795;29;20045;-78
2023/03/13 09:25:27;;;;;;;0.10;0.10;;;;;;;;;;4788790;29;20058;-77
2023/03/13 09:28:00;;;;;;;0.10;0.10;;;;;;;;;;4782657;29;20054;-77
2023/03/13 09:30:32;;;;;;;0.10;0.10;;;;;;;;;;4785520;29;20055;-78
2023/03/13 09:33:07;;;;;;;0.20;0.20;;;;;;;;;;4791708;29;20103;-79
2023/03/13 09:35:45;;;;;;;0.17;0.17;;;;;;;;;;4778385;29;20057;-79
2023/03/13 09:38:49;;;;;;;0.20;0.20;;;;;;;;;;4786909;29;20471;-79
2023/03/13 09:41:15;;;;;;;0.10;0.10;;;;;;;;;;4751617;29;20115;-79
2023/03/13 09:44:03;;;;;;;0.20;0.20;;;;;;;;;;4804787;29;20496;-80
2023/03/13 09:46:38;;;;;;;0.17;0.17;;;;;;;;;;4788513;29;20137;-77
2023/03/13 09:49:23;;;;;;;0.15;0.15;;;;;;;;;;4801058;29;20066;-78
2023/03/13 09:52:11;;;;;;;0.10;0.10;;;;;;;;;;4795265;29;20047;-78
2023/03/13 09:54:43;;;;;;;0.20;0.20;;;;;;;;;;4803145;29;20050;-77
2023/03/13 09:57:14;;;;;;;0.20;0.20;;;;;;;;;;4785470;29;20051;-78
2023/03/13 09:59:47;;;;;;;0.10;0.10;;;;;;;;;;4789316;29;20461;-78
2023/03/13 10:02:19;;;;;;;0.20;0.20;;;;;;;;;;4787377;29;20134;-77
2023/03/13 10:04:51;;;;;;;0.13;0.13;;;;;;;;;;4800371;29;20093;-78
2023/03/13 10:07:19;;;;;;;0.10;0.10;;;;;;;;;;4787308;29;20047;-77
2023/03/13 10:09:45;;;;;;;0.20;0.20;;;;;;;;;;4801955;29;20055;-77
2023/03/13 10:12:20;;;;;;;0.20;0.20;;;;;;;;;;4797477;29;20058;-78
2023/03/13 10:15:05;;;;;;;0.10;0.10;;;;;;;;;;4804668;29;20415;-79
2023/03/13 10:17:38;;;;;;;0.17;0.17;;;;;;;;;;4802964;29;20070;-78
2023/03/13 10:20:22;;;;;;;0.10;0.10;;;;;;;;;;4821142;29;20047;-78
2023/03/13 10:22:51;;;;;;;0.15;0.15;;;;;;;;;;4805630;29;20069;-77
2023/03/13 10:25:17;;;;;;;0.20;0.20;;;;;;;;;;4813625;29;20107;-77
2023/03/13 10:27:48;;;;;;;0.17;0.17;;;;;;;;;;4798744;29;20054;-78
2023/03/13 10:30:14;;;;;;;;;;;;;;;;;;4806482;29;20076;-78
2023/03/13 10:32:41;;;;;;;0.10;0.10;;;;;;;;;;4818494;29;19928;-77
2023/03/13 10:35:11;;;;;;;0.10;0.10;;;;;;;;;;4804931;29;20469;-79
2023/03/13 10:37:42;;;;;;;0.20;0.20;;;;;;;;;;4816674;29;20059;-79
2023/03/13 10:40:12;;;;;;;0.20;0.20;;;;;;;;;;4805744;29;20081;-78
2023/03/13 10:42:42;;;;;;;0.13;0.13;;;;;;;;;;4820498;29;20069;-78
2023/03/13 10:45:13;;;;;;;0.10;0.10;;;;;;;;;;4820968;29;20157;-77
2023/03/13 10:47:39;;;;;;;0.20;0.20;;;;;;;;;;4820271;29;20114;-77
2023/03/13 10:50:06;;;;;;;0.20;0.20;;;;;;;;;;4821874;29;20090;-77
2023/03/13 10:52:42;;;;;;;0.10;0.10;;;;;;;;;;4803664;29;20157;-76
2023/03/13 10:55:16;;;;;;;0.10;0.10;;;;;;;;;;4804342;29;20115;-76
2023/03/13 10:57:43;;;;;;;0.10;0.10;;;;;;;;;;4802138;29;20053;-77
2023/03/13 11:00:25;;;;;;;0.10;0.10;;;;;;;;;;4821301;29;20058;-78
2023/03/13 11:02:53;;;;;;;0.10;0.10;;;;;;;;;;4820487;29;20050;-77
2023/03/13 11:05:25;;;;;;;0.10;0.10;;;;;;;;;;4805146;29;20107;-77
2023/03/13 11:07:52;;;;;;;0.10;0.10;;;;;;;;;;4803943;29;20050;-76
2023/03/13 11:10:22;;;;;;;0.10;0.10;;;;;;;;;;4787224;29;20051;-73
2023/03/13 11:12:52;;;;;;;0.20;0.20;;;;;;;;;;4801660;29;20065;-73
2023/03/13 11:15:51;;;;;;;0.17;0.17;;;;;;;;;;4819197;29;20126;-73
2023/03/13 11:18:46;;;;;;;0.20;0.20;;;;;;;;;;4800996;29;20054;-73
2023/03/13 11:21:17;;;;;;;0.10;0.10;;;;;;;;;;4818547;29;20133;-72
2023/03/13 11:23:49;;;;;;;0.10;0.10;;;;;;;;;;4825135;29;20054;-73
2023/03/13 11:26:21;;;;;;;0.10;0.10;;;;;;;;;;4818074;29;20076;-73
2023/03/13 11:28:47;;;;;;;0.10;0.10;;;;;;;;;;4827736;29;20042;-72
2023/03/13 11:31:45;;;;;;;0.10;0.10;;;;;;;;;;4807016;29;20047;-72
2023/03/13 11:34:25;;;;;;;0.10;0.10;;;;;;;;;;4807156;29;20051;-75
2023/03/13 11:37:03;;;;;;;0.20;0.20;;;;;;;;;;4807092;29;20068;-72
2023/03/13 11:39:29;;;;;;;0.10;0.10;;;;;;;;;;4823073;29;20491;-74
2023/03/13 11:42:00;;;;;;;0.13;0.13;;;;;;;;;;4804669;29;20069;-72
2023/03/13 11:44:51;;;;;;;0.10;0.10;;;;;;;;;;4824654;29;20060;-73
2023/03/13 11:47:20;;;;;;;0.20;0.20;;;;;;;;;;4794005;29;20054;-72
2023/03/13 11:50:09;;;;;;;0.10;0.10;;;;;;;;;;4822483;29;20050;-73
2023/03/13 11:52:40;;;;;;;0.10;0.10;;;;;;;;;;4806647;29;20133;-73
2023/03/13 11:55:09;;;;;;;0.20;0.20;;;;;;;;;;4823456;29;20147;-73
2023/03/13 11:58:01;;;;;;;0.20;0.20;;;;;;;;;;4806756;29;20071;-74
2023/03/13 12:00:42;;;;;;;0.20;0.20;;;;;;;;;;4801850;29;20093;-73
2023/03/13 12:03:20;;;;;;;0.15;0.15;;;;;;;;;;4807141;29;20050;-73
2023/03/13 12:06:01;;;;;;;0.10;0.10;;;;;;;;;;4799846;29;20105;-73
2023/03/13 12:08:38;;;;;;;0.15;0.15;;;;;;;;;;4818625;29;20050;-73
2023/03/13 12:11:14;;;;;;;0.10;0.10;;;;;;;;;;4802776;29;20057;-73
2023/03/13 12:13:55;;;;;;;0.15;0.15;;;;;;;;;;4807238;29;20473;-73
2023/03/13 12:16:26;;;;;;;0.10;0.10;;;;;;;;;;4822648;29;20077;-72
2023/03/13 12:18:53;;;;;;;0.10;0.10;;;;;;;;;;4807112;29;20530;-72
2023/03/13 12:21:29;;;;;;;0.20;0.20;;;;;;;;;;4823174;29;20034;-72
2023/03/13 12:23:55;;;;;;;0.10;0.10;;;;;;;;;;4821722;29;20058;-73
2023/03/13 12:26:24;;;;;;;0.20;0.20;;;;;;;;;;4804478;29;20511;-72
2023/03/13 12:28:56;;;;;;;0.20;0.20;;;;;;;;;;4802285;29;20060;-72
2023/03/13 12:31:34;;;;;;;0.10;0.10;;;;;;;;;;4822363;29;20050;-72
2023/03/13 12:34:18;;;;;;;0.20;0.20;;;;;;;;;;4823106;29;20058;-72
2023/03/13 12:37:00;;;;;;;0.20;0.20;;;;;;;;;;4822698;29;20062;-72
2023/03/13 12:39:37;;;;;;;0.10;0.10;;;;;;;;;;4802723;29;20253;-72
2023/03/13 12:42:22;;;;;;;0.10;0.10;;;;;;;;;;4803061;29;20077;-72
2023/03/13 12:44:48;;;;;;;1.65;0.30;;;;;;;;;;4804474;29;20499;-72
2023/03/13 12:47:17;;;;;;;0.20;0.20;;;;;;;;;;4805707;29;20518;-73
2023/03/13 12:49:49;;;;;;;0.20;0.20;;;;;;;;;;4805437;29;20625;-72
2023/03/13 12:52:19;;;;;;;0.20;0.20;;;;;;;;;;4806656;29;20046;-72
2023/03/13 12:54:54;;;;;;;0.20;0.20;;;;;;;;;;4807198;29;20445;-72
2023/03/13 12:57:35;;;;;;;0.20;0.20;;;;;;;;;;4822079;29;20057;-72
2023/03/13 13:00:05;;;;;;;0.20;0.20;;;;;;;;;;4804703;29;20112;-73
2023/03/13 13:02:31;;;;;;;0.15;0.15;;;;;;;;;;4823427;29;20047;-73
2023/03/13 13:04:59;;;;;;;0.13;0.13;;;;;;;;;;4802534;29;20062;-73
2023/03/13 13:07:28;;;;;;;0.20;0.20;;;;;;;;;;4800885;29;20713;-73
2023/03/13 13:10:09;;;;;;;0.20;0.20;;;16.30;99.90;;;;;;4803790;29;20038;-72
2023/03/13 13:12:46;;;;;;;0.13;0.13;;;16.30;99.90;;;;;;4807277;29;20119;-72
2023/03/13 13:15:25;;;;;;;0.15;0.15;;;16.40;99.90;;;;;;4819131;29;20083;-72
2023/03/13 13:18:09;;;;;;;0.20;0.20;;;16.50;99.90;;;;;;4805208;29;20100;-72
2023/03/13 13:20:44;;;;;;;0.20;0.20;;;16.80;99.90;;;;;;4794223;29;20050;-72
2023/03/13 13:23:21;;;;;;;0.20;0.20;;;17.00;99.90;;;;;;4806859;29;20484;-73
2023/03/13 13:25:48;;;;;;;0.20;0.20;;;17.20;99.90;;;;;;4820769;29;20064;-73
2023/03/13 13:28:33;;;;;;;0.10;0.10;;;17.30;99.90;;;;;;4805203;29;20092;-73
2023/03/13 13:30:59;;;;;;;0.20;0.20;;;17.80;99.90;;;;;;4821972;29;20175;-73
2023/03/13 13:33:29;;;;;;;0.10;0.10;;;18.20;99.90;;;;;;4820774;29;20141;-73
2023/03/13 13:36:20;;;;;;;0.10;0.10;;;18.90;99.90;;;;;;4802611;29;20606;-73
2023/03/13 13:38:46;;;;;;;0.15;0.15;;;19.50;99.90;;;;;;4812943;29;20051;-74
2023/03/13 13:41:12;;;;;;;0.20;0.20;;;20.10;99.10;;;;;;4803881;29;20046;-74
2023/03/13 13:43:47;;;;;;;0.20;0.20;;;20.70;99.80;;;;;;4821292;29;20053;-75
2023/03/13 13:46:32;;;;;;;0.20;0.20;;;21.30;97.10;;;;;;4820844;29;20042;-74
2023/03/13 13:49:04;;;;;;;0.20;0.20;;;21.70;98.80;;;;;;4803329;29;20133;-73
2023/03/13 13:51:31;;;;;;;0.28;0.28;;;22.00;97.60;;;;;;4814406;29;20611;-74
2023/03/13 13:54:32;;;;;;;0.20;0.20;;;22.50;95.20;;;;;;4799338;29;20312;-73
2023/03/13 13:57:00;;;;;;;0.20;0.20;;;22.90;94.90;;;;;;4794670;29;20051;-75
2023/03/13 13:59:32;;;;;;;0.20;0.20;;;22.90;90.10;;;;;;4805123;29;20419;-73
2023/03/13 14:02:06;;;;;;;0.10;0.10;;;22.80;91.60;;;;;;4821377;29;20131;-73
2023/03/13 14:05:02;;;;;;;0.20;0.20;;;22.90;90.00;;;;;;4819232;29;20107;-73
2023/03/13 14:07:40;;;;;;;0.20;0.20;;;23.00;90.30;;;;;;4794899;29;20038;-73
2023/03/13 14:10:27;;;;;;;0.20;0.20;;;22.90;86.30;;;;;;4802765;29;20058;-73
2023/03/13 14:12:55;;;;;;;0.20;0.20;;;23.00;86.60;;;;;;4817300;29;20058;-73
2023/03/13 14:15:25;;;;;;;0.20;0.20;;;23.50;86.90;;;;;;4806406;29;20085;-73
2023/03/13 14:18:07;;;;;;;0.20;0.20;;;23.50;87.40;;;;;;4821170;29;20061;-73
2023/03/13 14:20:49;;;;;;;0.20;0.20;;;23.00;83.60;;;;;;4803779;29;20058;-73
2023/03/13 14:23:29;;;;;;;0.10;0.10;;;21.90;82.80;;;;;;4804067;29;20047;-73
2023/03/13 14:25:54;;;;;;;0.10;0.10;;;21.50;83.60;;;;;;4821777;29;20073;-73
2023/03/13 14:28:28;;;;;;;0.20;0.20;;;21.10;82.00;;;;;;4804854;29;20514;-73
2023/03/13 14:30:57;;;;;;;0.20;0.20;;;;;;;;;;4804338;29;20062;-73
2023/03/13 14:33:26;;;;;;;0.20;0.20;;;;;;;;;;4821666;29;20103;-74
2023/03/13 14:35:56;;;;;;;0.20;0.20;;;;;;;;;;4821332;29;20086;-73
2023/03/13 14:38:34;;;;;;;0.20;0.20;;;;;;;;;;4821445;29;20362;-74
2023/03/13 14:41:00;;;;;;;0.20;0.20;;;;;;;;;;4821426;29;20061;-74
2023/03/13 14:43:40;;;;;;;0.20;0.20;;;;;;;;;;4804330;29;20115;-74
2023/03/13 14:46:14;;;;;;;0.10;0.10;;;;;;;;;;4803127;29;20070;-73
2023/03/13 14:48:40;;;;;;;0.20;0.20;;;;;;;;;;4818424;29;20078;-74
2023/03/13 14:51:17;;;;;;;0.20;0.20;;;19.80;84.80;;;;;;4819366;29;20540;-73
2023/03/13 14:53:53;;;;;;;0.20;0.20;;;;;;;;;;4821123;29;20038;-73
2023/03/13 14:56:19;;;;;;;0.10;0.10;;;;;;;;;;4802927;29;20507;-73
2023/03/13 14:58:47;;;;;;;0.10;0.10;;;;;;;;;;4822377;29;20062;-73
2023/03/13 15:01:21;;;;;;;0.20;0.20;;;;;;;;;;4821514;29;20146;-73
2023/03/13 15:03:47;;;;;;;0.20;0.20;;;;;;;;;;4821780;29;20095;-73
2023/03/13 15:06:17;;;;;;;0.20;0.20;;;;;;;;;;4819916;29;20103;-73
2023/03/13 15:08:45;;;;;;;0.20;0.20;;;;;;;;;;4819415;29;20042;-73
2023/03/13 15:11:17;;;;;;;0.10;0.10;;;;;;;;;;4797669;29;20456;-72
2023/03/13 15:13:43;;;;;;;0.20;0.20;;;;;;;;;;4786648;29;20062;-73
2023/03/13 15:16:18;;;;;;;0.20;0.20;;;;;;;;;;4794509;29;20050;-73
2023/03/13 15:18:45;;;;;;;0.20;0.20;;;;;;;;;;4821386;29;20569;-73
2023/03/13 15:21:16;;;;;;;0.20;0.20;;;;;;;;;;4819235;29;20484;-73
2023/03/13 15:23:49;;;;;;;0.20;0.20;;;;;;;;;;4803831;29;20058;-73
2023/03/13 15:26:16;;;;;;;0.10;0.10;;;;;;;;;;4818777;29;20084;-72
2023/03/13 15:28:42;;;;;;;0.20;0.20;;;;;;;;;;4820592;29;20043;-72
2023/03/13 15:31:11;;;;;;;0.20;0.20;;;;;;;;;;4804542;29;20054;-72
2023/03/13 15:33:37;;;;;;;0.20;0.20;;;;;;;;;;4820653;29;20052;-73
2023/03/13 15:36:03;;;;;;;0.20;0.20;;;;;;;;;;4799508;29;20053;-73
2023/03/13 15:38:30;;;;;;;0.10;0.10;;;;;;;;;;4819267;29;20133;-72
2023/03/13 15:40:56;;;;;;;0.20;0.20;;;;;;;;;;4819038;29;20058;-72
2023/03/13 15:43:22;;;;;;;0.20;0.20;;;;;;;;;;4815992;29;20172;-72
2023/03/13 15:45:52;;;;;;;0.17;0.17;;;;;;;;;;4819231;29;20061;-71
2023/03/13 15:48:18;;;;;;;0.20;0.20;;;;;;;;;;4817614;29;20110;-72
2023/03/13 15:50:45;;;;;;;0.17;0.17;;;;;;;;;;4820606;29;20051;-73
2023/03/13 15:53:19;;;;;;;0.10;0.10;;;;;;;;;;4821690;29;20146;-72
2023/03/13 15:55:58;;;;;;;0.10;0.10;;;;;;;;;;4819060;29;20492;-73
2023/03/13 15:58:28;;;;;;;0.13;0.13;;;;;;;;;;4818928;29;20054;-73
2023/03/13 16:00:55;;;;;;;0.10;0.10;;;;;;;;;;4804457;29;20046;-72
2023/03/13 16:03:26;;;;;;;0.20;0.20;;;;;;;;;;4803566;29;20098;-72
2023/03/13 16:05:53;;;;;;;0.20;0.20;;;;;;;;;;4817283;29;20046;-72
2023/03/13 16:08:26;;;;;;;0.20;0.20;;;;;;;;;;4803276;29;20133;-73
2023/03/13 16:10:53;;;;;;;0.20;0.20;;;;;;;;;;4804161;29;20432;-72
2023/03/13 16:13:19;;;;;;;0.20;0.20;;;;;;;;;;4806413;29;20066;-72
2023/03/13 16:15:46;;;;;;;0.20;0.20;;;;;;;;;;4807188;29;20046;-72
2023/03/13 16:18:22;;;;;;;1.40;0.52;;;;;;;;;;4807060;29;20065;-72
2023/03/13 16:20:48;;;;;;;0.13;0.13;;;;;;;;;;4807863;29;20491;-74
2023/03/13 16:23:15;;;;;;;0.10;0.10;;;;;;;;;;4823202;29;20049;-72
2023/03/13 16:25:46;;;;;;;0.10;0.10;;;;;;;;;;4822926;29;20060;-71
2023/03/13 16:28:12;;;;;;;0.10;0.10;;;;;;;;;;4820951;29;20149;-72
2023/03/13 16:30:40;;;;;;;0.10;0.10;;;;;;;;;;4807035;29;20058;-72
2023/03/13 16:33:06;;;;;;;0.10;0.10;;;;;;;;;;4823849;29;20046;-72
2023/03/13 16:35:33;;;;;;;0.20;0.20;;;;;;;;;;4807591;29;20091;-72
2023/03/13 16:37:59;;;;;;;0.10;0.10;;;;;;;;;;4799484;29;20042;-72
2023/03/13 16:40:34;;;;;;;0.20;0.20;;;;;;;;;;4822332;29;20054;-72
2023/03/13 16:43:00;;;;;;;0.20;0.20;;;;;;;;;;4807623;29;20115;-73
2023/03/13 16:45:26;;;;;;;0.10;0.10;;;;;;;;;;4837064;29;20402;-73
2023/03/13 16:47:52;;;;;;;0.10;0.10;;;;;;;;;;4822835;29;20042;-73
2023/03/13 16:50:18;;;;;;;0.20;0.20;;;;;;;;;;4822929;29;20050;-73
2023/03/13 16:52:44;;;;;;;0.10;0.10;;;;;;;;;;4822660;29;20269;-74
2023/03/13 16:55:10;;;;;;;0.10;0.10;;;;;;;;;;4823076;29;20053;-73
2023/03/13 16:57:37;;;;;;;0.20;0.20;;;;;;;;;;4820823;29;20060;-72
2023/03/13 17:00:06;;;;;;;0.13;0.13;;;;;;;;;;4798920;29;20388;-76
2023/03/13 18:30:00;;;;;;;0.10;0.10;;;;;;;;;;5779464;23;20342;-77
2023/03/13 18:32:26;;;;;;;0.13;0.13;;;;;;;;;;4856981;29;20053;-79
2023/03/13 20:40:00;;;;;;;0.20;0.20;;;;;;;;;;4852711;23;20135;-81
2023/03/13 20:42:26;;;;;;;0.10;0.10;;;;;;;;;;4850104;29;20053;-79
2023/03/13 20:48:27;;;;;;;0.20;0.20;;;;;;;;;;4850163;29;20054;-79
2023/03/13 20:55:11;;;;;;;0.10;0.10;;;;;;;;;;4761817;30;20052;-80
2023/03/13 20:58:27;;;;;;;0.20;0.20;;;;;;;;;;4765279;30;20079;-78
2023/03/13 21:01:25;;;;;;;0.20;0.20;;;;;;;;;;4783350;29;20053;-78
2023/03/13 21:07:18;;;;;;;0.20;0.20;;;;;;;;;;4741237;30;20059;-77
2023/03/13 21:13:51;;;;;;;0.10;0.10;;;;;;;;;;4743959;30;20070;-79
2023/03/13 21:17:12;;;;;;;;;;;;;;;;;;;;;
2023/03/13 21:27:10;;;;;;;0.20;0.20;;;;;;;;;;4747572;30;20060;-81
2023/03/13 21:30:07;;;;;;;;;;;;;;;;;;;;;
2023/03/13 21:34:01;;;;;;;0.10;0.10;;;;;;;;;;4747027;30;20139;-78
2023/03/13 21:36:27;;;;;;;0.17;0.17;;;;;;;;;;4742376;30;20059;-79
2023/03/13 21:39:17;;;;;;;0.20;0.20;;;;;;;;;;4749107;30;20568;-78
2023/03/13 21:41:58;;;;;;;0.20;0.20;;;;;;;;;;4757274;29;20066;-78
2023/03/13 21:44:44;;;;;;;0.20;0.20;;;;;;;;;;4800228;29;20103;-78
2023/03/13 21:48:10;;;;;;;0.13;0.13;;;;;;;;;;4828299;29;20082;-79
2023/03/13 21:51:14;;;;;;;0.20;0.20;;;;;;;;;;4832916;29;20408;-79
2023/03/13 21:53:46;;;;;;;0.10;0.10;;;;;;;;;;4828040;29;20105;-77
2023/03/13 21:56:14;;;;;;;0.10;0.10;;;;;;;;;;4841081;29;20101;-76
2023/03/13 21:58:40;;;;;;;0.10;0.10;;;;;;;;;;4834310;29;20291;-77
2023/03/13 22:01:07;;;;;;;0.10;0.10;;;;;;;;;;4867057;29;20392;-76
2023/03/13 22:03:33;;;;;;;0.20;0.20;;;;;;;;;;4845941;29;20106;-77
2023/03/13 22:06:02;;;;;;;0.13;0.13;;;;;;;;;;4854902;29;20502;-77
2023/03/13 22:08:28;;;;;;;0.17;0.17;;;;;;;;;;4857629;29;20065;-77
2023/03/13 22:10:57;;;;;;;0.20;0.20;;;;;;;;;;4842201;29;20053;-76
2023/03/13 22:13:44;;;;;;;0.20;0.20;;;;;;;;;;4838655;29;20065;-78
2023/03/13 22:16:23;;;;;;;;;;;;;;;;;;;;;
2023/03/13 22:18:54;;;;;;;0.10;0.10;;;;;;;;;;4834563;29;20112;-77
2023/03/13 22:21:20;;;;;;;0.20;0.20;;;;;;;;;;4853163;29;20053;-77
2023/03/13 22:23:46;;;;;;;0.10;0.10;;;;;;;;;;4840976;29;20049;-77
2023/03/13 22:26:13;;;;;;;0.10;0.10;;;;;;;;;;4829262;29;20049;-77
2023/03/13 22:28:39;;;;;;;0.10;0.10;;;;;;;;;;4858171;29;20091;-77
2023/03/13 22:31:06;;;;;;;0.20;0.20;;;;;;;;;;4841373;29;20144;-77
2023/03/13 22:33:32;;;;;;;0.10;0.10;;;;;;;;;;4841220;29;20049;-77
2023/03/13 22:35:59;;;;;;;0.20;0.20;;;;;;;;;;4828289;29;20041;-77
2023/03/13 22:38:35;;;;;;;0.10;0.10;;;;;;;;;;4834644;29;20081;-77
2023/03/13 22:41:02;;;;;;;0.10;0.10;;;;;;;;;;4840639;29;20486;-77
2023/03/13 22:43:28;;;;;;;0.10;0.10;;;;;;;;;;4848679;29;20440;-77
2023/03/13 22:45:55;;;;;;;0.17;0.17;;;;;;;;;;4852181;29;20064;-78
2023/03/13 22:48:24;;;;;;;0.10;0.10;;;;;;;;;;4856442;29;20132;-78
2023/03/13 22:51:04;;;;;;;0.17;0.17;;;;;;;;;;4838846;29;20124;-78
2023/03/13 22:53:31;;;;;;;0.20;0.20;;;;;;;;;;4840136;29;20053;-77
2023/03/13 22:55:57;;;;;;;0.20;0.20;;;;;;;;;;4828324;29;20053;-78
2023/03/13 22:58:23;;;;;;;0.10;0.10;;;;;;;;;;4856869;29;20080;-77
2023/03/13 23:00:50;;;;;;;0.20;0.20;;;;;;;;;;4839777;29;20054;-77
2023/03/13 23:03:16;;;;;;;0.20;0.20;;;;;;;;;;4840002;29;20041;-77
2023/03/13 23:05:43;;;;;;;0.20;0.20;;;;;;;;;;4837400;29;20061;-77
2023/03/13 23:08:10;;;;;;;0.10;0.10;;;;;;;;;;4842919;29;20080;-77
2023/03/13 23:10:36;;;;;;;0.10;0.10;;;;;;;;;;4856940;29;20128;-77
2023/03/13 23:13:02;;;;;;;0.15;0.15;;;;;;;;;;4839949;29;20041;-77
2023/03/13 23:15:31;;;;;;;0.15;0.15;;;;;;;;;;4857935;29;20133;-77
2023/03/13 23:18:00;;;;;;;0.10;0.10;;;;;;;;;;4841223;29;20054;-77
2023/03/13 23:20:26;;;;;;;0.10;0.10;;;;;;;;;;4847378;29;20272;-77
2023/03/13 23:22:52;;;;;;;0.13;0.13;;;;;;;;;;4832219;29;20041;-77
2023/03/13 23:25:18;;;;;;;0.10;0.10;;;;;;;;;;4863128;29;20053;-77
2023/03/13 23:27:44;;;;;;;0.10;0.10;;;;;;;;;;4835211;29;20524;-78
2023/03/13 23:30:12;;;;;;;0.20;0.20;;;;;;;;;;4842807;29;20961;-77
2023/03/13 23:32:39;;;;;;;0.10;0.10;;;;;;;;;;4863205;29;20129;-77
2023/03/13 23:35:06;;;;;;;0.10;0.10;;;;;;;;;;4863507;29;20528;-77
2023/03/13 23:37:32;;;;;;;0.10;0.10;;;;;;;;;;4845933;29;20044;-77
2023/03/13 23:39:59;;;;;;;0.10;0.10;;;;;;;;;;4845592;29;20049;-77
2023/03/13 23:42:26;;;;;;;0.10;0.10;;;;;;;;;;4863168;29;20041;-77
2023/03/13 23:44:52;;;;;;;0.10;0.10;;;;;;;;;;4840590;29;20060;-76
2023/03/13 23:47:18;;;;;;;0.17;0.17;;;;;;;;;;4855720;29;20426;-77
2023/03/13 23:49:44;;;;;;;0.10;0.10;;;;;;;;;;4846979;29;20090;-77
2023/03/13 23:52:10;;;;;;;0.10;0.10;;;;;;;;;;4852026;29;20048;-78
2023/03/13 23:54:36;;;;;;;0.10;0.10;;;;;;;;;;4841036;29;20073;-78
2023/03/13 23:57:02;;;;;;;0.10;0.10;;;;;;;;;;4841043;29;20079;-77
2023/03/13 23:59:28;;;;;;;0.20;0.20;;;;;;;;;;4846642;29;20065;-77
